sensor_id;sensor_type;location;lat;lon;timestamp;P1;durP1;ratioP1;P2;durP2;ratioP2
13847;SDS011;6994;49.752;6.094;2022-09-17T00:01:55;4.00;;;2.10;;
13847;SDS011;6994;49.752;6.094;2022-09-17T00:04:22;3.37;;;2.20;;
13847;SDS011;6994;49.752;6.094;2022-09-17T00:06:49;3.30;;;1.90;;
13847;SDS011;6994;49.752;6.094;2022-09-17T00:09:16;6.25;;;2.33;;
13847;SDS011;6994;49.752;6.094;2022-09-17T00:11:44;3.47;;;1.77;;
13847;SDS011;6994;49.752;6.094;2022-09-17T00:14:13;3.00;;;1.98;;
13847;SDS011;6994;49.752;6.094;2022-09-17T00:16:39;2.22;;;1.70;;
13847;SDS011;6994;49.752;6.094;2022-09-17T00:19:06;3.40;;;2.83;;
13847;SDS011;6994;49.752;6.094;2022-09-17T00:21:32;5.05;;;2.70;;
13847;SDS011;6994;49.752;6.094;2022-09-17T00:24:01;6.18;;;2.83;;
13847;SDS011;6994;49.752;6.094;2022-09-17T00:26:27;4.80;;;2.65;;
13847;SDS011;6994;49.752;6.094;2022-09-17T00:28:55;5.80;;;2.20;;
13847;SDS011;6994;49.752;6.094;2022-09-17T00:31:21;2.92;;;2.22;;
13847;SDS011;6994;49.752;6.094;2022-09-17T00:33:48;3.47;;;2.25;;
13847;SDS011;6994;49.752;6.094;2022-09-17T00:36:16;4.15;;;2.60;;
13847;SDS011;6994;49.752;6.094;2022-09-17T00:38:43;3.37;;;2.03;;
13847;SDS011;6994;49.752;6.094;2022-09-17T00:41:10;3.50;;;2.00;;
13847;SDS011;6994;49.752;6.094;2022-09-17T00:43:41;4.12;;;3.15;;
13847;SDS011;6994;49.752;6.094;2022-09-17T00:46:50;4.57;;;2.58;;
13847;SDS011;6994;49.752;6.094;2022-09-17T00:48:43;5.43;;;2.37;;
13847;SDS011;6994;49.752;6.094;2022-09-17T00:51:10;4.20;;;2.40;;
13847;SDS011;6994;49.752;6.094;2022-09-17T00:53:37;2.00;;;1.65;;
13847;SDS011;6994;49.752;6.094;2022-09-17T00:56:14;4.12;;;2.22;;
13847;SDS011;6994;49.752;6.094;2022-09-17T00:58:41;4.30;;;2.10;;
13847;SDS011;6994;49.752;6.094;2022-09-17T01:01:09;2.58;;;2.10;;
13847;SDS011;6994;49.752;6.094;2022-09-17T01:03:37;2.08;;;1.70;;
13847;SDS011;6994;49.752;6.094;2022-09-17T01:11:59;5.40;;;1.87;;
13847;SDS011;6994;49.752;6.094;2022-09-17T01:17:24;4.95;;;2.00;;
13847;SDS011;6994;49.752;6.094;2022-09-17T01:20:02;3.03;;;2.67;;
13847;SDS011;6994;49.752;6.094;2022-09-17T01:22:51;4.22;;;2.30;;
13847;SDS011;6994;49.752;6.094;2022-09-17T01:31:21;4.20;;;2.97;;
13847;SDS011;6994;49.752;6.094;2022-09-17T01:33:57;6.68;;;2.53;;
13847;SDS011;6994;49.752;6.094;2022-09-17T01:36:48;4.70;;;2.58;;
13847;SDS011;6994;49.752;6.094;2022-09-17T01:39:17;5.25;;;1.73;;
13847;SDS011;6994;49.752;6.094;2022-09-17T01:41:53;4.97;;;2.20;;
13847;SDS011;6994;49.752;6.094;2022-09-17T01:44:30;3.70;;;1.90;;
13847;SDS011;6994;49.752;6.094;2022-09-17T01:47:07;2.78;;;1.90;;
13847;SDS011;6994;49.752;6.094;2022-09-17T01:49:37;7.22;;;3.00;;
13847;SDS011;6994;49.752;6.094;2022-09-17T01:52:06;3.78;;;2.55;;
13847;SDS011;6994;49.752;6.094;2022-09-17T01:54:39;4.78;;;2.70;;
13847;SDS011;6994;49.752;6.094;2022-09-17T01:57:08;5.18;;;2.03;;
13847;SDS011;6994;49.752;6.094;2022-09-17T02:02:30;3.17;;;2.05;;
13847;SDS011;6994;49.752;6.094;2022-09-17T02:07:26;6.40;;;2.12;;
13847;SDS011;6994;49.752;6.094;2022-09-17T02:10:02;3.95;;;2.42;;
13847;SDS011;6994;49.752;6.094;2022-09-17T02:12:27;6.20;;;2.60;;
13847;SDS011;6994;49.752;6.094;2022-09-17T02:14:55;6.03;;;2.22;;
13847;SDS011;6994;49.752;6.094;2022-09-17T02:17:31;2.50;;;2.00;;
13847;SDS011;6994;49.752;6.094;2022-09-17T02:20:05;6.82;;;2.70;;
13847;SDS011;6994;49.752;6.094;2022-09-17T02:22:40;7.03;;;2.12;;
13847;SDS011;6994;49.752;6.094;2022-09-17T02:25:07;5.95;;;2.20;;
13847;SDS011;6994;49.752;6.094;2022-09-17T02:27:47;3.78;;;2.25;;
13847;SDS011;6994;49.752;6.094;2022-09-17T02:30:27;2.67;;;1.70;;
13847;SDS011;6994;49.752;6.094;2022-09-17T02:32:55;5.68;;;2.25;;
13847;SDS011;6994;49.752;6.094;2022-09-17T02:35:23;3.30;;;2.25;;
13847;SDS011;6994;49.752;6.094;2022-09-17T02:37:51;7.25;;;2.33;;
13847;SDS011;6994;49.752;6.094;2022-09-17T02:40:19;3.47;;;2.20;;
13847;SDS011;6994;49.752;6.094;2022-09-17T02:42:51;5.93;;;2.20;;
13847;SDS011;6994;49.752;6.094;2022-09-17T02:45:19;2.97;;;1.98;;
13847;SDS011;6994;49.752;6.094;2022-09-17T02:50:33;5.15;;;2.33;;
13847;SDS011;6994;49.752;6.094;2022-09-17T02:58:31;3.60;;;2.50;;
13847;SDS011;6994;49.752;6.094;2022-09-17T03:01:05;2.87;;;1.77;;
13847;SDS011;6994;49.752;6.094;2022-09-17T03:03:32;4.97;;;2.97;;
13847;SDS011;6994;49.752;6.094;2022-09-17T03:05:58;4.50;;;2.80;;
13847;SDS011;6994;49.752;6.094;2022-09-17T03:08:29;10.30;;;2.03;;
13847;SDS011;6994;49.752;6.094;2022-09-17T03:10:56;5.12;;;2.35;;
13847;SDS011;6994;49.752;6.094;2022-09-17T03:13:23;7.75;;;2.10;;
13847;SDS011;6994;49.752;6.094;2022-09-17T03:15:50;5.47;;;2.20;;
13847;SDS011;6994;49.752;6.094;2022-09-17T03:18:17;6.60;;;2.12;;
13847;SDS011;6994;49.752;6.094;2022-09-17T03:20:45;6.37;;;2.15;;
13847;SDS011;6994;49.752;6.094;2022-09-17T03:23:12;5.78;;;2.22;;
13847;SDS011;6994;49.752;6.094;2022-09-17T03:25:39;5.97;;;2.20;;
13847;SDS011;6994;49.752;6.094;2022-09-17T03:28:06;2.20;;;2.00;;
13847;SDS011;6994;49.752;6.094;2022-09-17T03:30:33;4.12;;;1.90;;
13847;SDS011;6994;49.752;6.094;2022-09-17T03:33:01;11.05;;;2.62;;
13847;SDS011;6994;49.752;6.094;2022-09-17T03:35:29;2.70;;;1.98;;
13847;SDS011;6994;49.752;6.094;2022-09-17T03:37:57;4.93;;;2.00;;
13847;SDS011;6994;49.752;6.094;2022-09-17T03:40:25;5.82;;;3.53;;
13847;SDS011;6994;49.752;6.094;2022-09-17T03:42:53;2.75;;;1.92;;
13847;SDS011;6994;49.752;6.094;2022-09-17T03:45:21;5.95;;;2.22;;
13847;SDS011;6994;49.752;6.094;2022-09-17T03:47:49;5.62;;;2.75;;
13847;SDS011;6994;49.752;6.094;2022-09-17T03:50:16;5.90;;;2.65;;
13847;SDS011;6994;49.752;6.094;2022-09-17T03:52:43;5.97;;;3.37;;
13847;SDS011;6994;49.752;6.094;2022-09-17T03:55:10;5.78;;;2.72;;
13847;SDS011;6994;49.752;6.094;2022-09-17T03:57:37;6.78;;;3.45;;
13847;SDS011;6994;49.752;6.094;2022-09-17T04:00:05;6.22;;;2.58;;
13847;SDS011;6994;49.752;6.094;2022-09-17T04:02:32;6.62;;;3.10;;
13847;SDS011;6994;49.752;6.094;2022-09-17T04:04:59;7.35;;;2.78;;
13847;SDS011;6994;49.752;6.094;2022-09-17T04:07:26;9.88;;;3.37;;
13847;SDS011;6994;49.752;6.094;2022-09-17T04:09:53;3.75;;;2.70;;
13847;SDS011;6994;49.752;6.094;2022-09-17T04:12:21;4.28;;;2.47;;
13847;SDS011;6994;49.752;6.094;2022-09-17T04:14:49;5.93;;;2.37;;
13847;SDS011;6994;49.752;6.094;2022-09-17T04:17:17;5.87;;;3.20;;
13847;SDS011;6994;49.752;6.094;2022-09-17T04:19:44;6.07;;;3.37;;
13847;SDS011;6994;49.752;6.094;2022-09-17T04:22:12;8.20;;;2.85;;
13847;SDS011;6994;49.752;6.094;2022-09-17T04:24:39;4.90;;;2.05;;
13847;SDS011;6994;49.752;6.094;2022-09-17T04:27:06;4.95;;;2.45;;
13847;SDS011;6994;49.752;6.094;2022-09-17T04:29:33;4.68;;;2.10;;
13847;SDS011;6994;49.752;6.094;2022-09-17T04:32:01;8.63;;;2.08;;
13847;SDS011;6994;49.752;6.094;2022-09-17T04:34:28;3.78;;;1.80;;
13847;SDS011;6994;49.752;6.094;2022-09-17T04:36:55;4.68;;;1.85;;
13847;SDS011;6994;49.752;6.094;2022-09-17T04:39:22;6.15;;;2.12;;
13847;SDS011;6994;49.752;6.094;2022-09-17T04:41:49;5.72;;;1.60;;
13847;SDS011;6994;49.752;6.094;2022-09-17T04:44:17;4.35;;;1.40;;
13847;SDS011;6994;49.752;6.094;2022-09-17T04:46:44;3.70;;;1.50;;
13847;SDS011;6994;49.752;6.094;2022-09-17T04:49:11;4.87;;;1.30;;
13847;SDS011;6994;49.752;6.094;2022-09-17T04:51:38;5.90;;;1.52;;
13847;SDS011;6994;49.752;6.094;2022-09-17T04:54:05;5.12;;;1.73;;
13847;SDS011;6994;49.752;6.094;2022-09-17T04:56:33;3.15;;;1.33;;
13847;SDS011;6994;49.752;6.094;2022-09-17T04:59:00;8.23;;;1.92;;
13847;SDS011;6994;49.752;6.094;2022-09-17T05:01:27;4.85;;;1.60;;
13847;SDS011;6994;49.752;6.094;2022-09-17T05:03:54;1.62;;;1.08;;
13847;SDS011;6994;49.752;6.094;2022-09-17T05:06:21;4.57;;;1.98;;
13847;SDS011;6994;49.752;6.094;2022-09-17T05:08:49;4.75;;;1.60;;
13847;SDS011;6994;49.752;6.094;2022-09-17T05:11:16;3.30;;;1.60;;
13847;SDS011;6994;49.752;6.094;2022-09-17T05:13:43;2.55;;;1.23;;
13847;SDS011;6994;49.752;6.094;2022-09-17T05:16:10;1.98;;;1.30;;
13847;SDS011;6994;49.752;6.094;2022-09-17T05:18:37;8.27;;;1.40;;
13847;SDS011;6994;49.752;6.094;2022-09-17T05:21:05;2.50;;;1.55;;
13847;SDS011;6994;49.752;6.094;2022-09-17T05:23:33;4.12;;;1.45;;
13847;SDS011;6994;49.752;6.094;2022-09-17T05:26:01;4.93;;;1.60;;
13847;SDS011;6994;49.752;6.094;2022-09-17T05:28:28;5.57;;;2.35;;
13847;SDS011;6994;49.752;6.094;2022-09-17T05:30:58;2.20;;;1.40;;
13847;SDS011;6994;49.752;6.094;2022-09-17T05:33:25;3.03;;;1.65;;
13847;SDS011;6994;49.752;6.094;2022-09-17T05:35:52;1.85;;;0.93;;
13847;SDS011;6994;49.752;6.094;2022-09-17T05:38:19;3.90;;;1.70;;
13847;SDS011;6994;49.752;6.094;2022-09-17T05:40:46;1.42;;;1.15;;
13847;SDS011;6994;49.752;6.094;2022-09-17T05:43:17;2.17;;;1.37;;
13847;SDS011;6994;49.752;6.094;2022-09-17T05:45:44;2.00;;;1.10;;
13847;SDS011;6994;49.752;6.094;2022-09-17T05:48:12;5.62;;;1.50;;
13847;SDS011;6994;49.752;6.094;2022-09-17T05:50:38;2.70;;;1.35;;
13847;SDS011;6994;49.752;6.094;2022-09-17T05:53:12;2.37;;;1.70;;
13847;SDS011;6994;49.752;6.094;2022-09-17T05:55:39;2.55;;;1.55;;
13847;SDS011;6994;49.752;6.094;2022-09-17T05:58:13;2.05;;;1.52;;
13847;SDS011;6994;49.752;6.094;2022-09-17T06:00:36;3.65;;;1.33;;
13847;SDS011;6994;49.752;6.094;2022-09-17T06:03:03;3.17;;;1.15;;
13847;SDS011;6994;49.752;6.094;2022-09-17T06:05:30;1.95;;;1.08;;
13847;SDS011;6994;49.752;6.094;2022-09-17T06:07:57;3.42;;;1.33;;
13847;SDS011;6994;49.752;6.094;2022-09-17T06:10:25;2.00;;;1.00;;
13847;SDS011;6994;49.752;6.094;2022-09-17T06:12:56;1.75;;;0.90;;
13847;SDS011;6994;49.752;6.094;2022-09-17T06:15:23;1.95;;;1.10;;
13847;SDS011;6994;49.752;6.094;2022-09-17T06:17:50;1.90;;;1.17;;
13847;SDS011;6994;49.752;6.094;2022-09-17T06:20:18;2.72;;;1.10;;
13847;SDS011;6994;49.752;6.094;2022-09-17T06:22:45;3.85;;;1.62;;
13847;SDS011;6994;49.752;6.094;2022-09-17T06:25:12;2.58;;;1.08;;
13847;SDS011;6994;49.752;6.094;2022-09-17T06:27:39;1.58;;;0.88;;
13847;SDS011;6994;49.752;6.094;2022-09-17T06:30:06;2.87;;;1.08;;
13847;SDS011;6994;49.752;6.094;2022-09-17T06:32:34;3.78;;;1.05;;
13847;SDS011;6994;49.752;6.094;2022-09-17T06:35:01;3.85;;;1.20;;
13847;SDS011;6994;49.752;6.094;2022-09-17T06:37:29;2.37;;;1.48;;
13847;SDS011;6994;49.752;6.094;2022-09-17T06:39:55;5.03;;;1.73;;
13847;SDS011;6994;49.752;6.094;2022-09-17T06:42:22;4.10;;;1.10;;
13847;SDS011;6994;49.752;6.094;2022-09-17T06:44:51;3.12;;;1.15;;
13847;SDS011;6994;49.752;6.094;2022-09-17T06:47:18;3.75;;;1.58;;
13847;SDS011;6994;49.752;6.094;2022-09-17T06:49:45;1.98;;;1.17;;
13847;SDS011;6994;49.752;6.094;2022-09-17T06:52:13;4.07;;;1.08;;
13847;SDS011;6994;49.752;6.094;2022-09-17T06:54:40;3.65;;;1.80;;
13847;SDS011;6994;49.752;6.094;2022-09-17T06:57:07;3.00;;;1.90;;
13847;SDS011;6994;49.752;6.094;2022-09-17T06:59:34;6.32;;;1.75;;
13847;SDS011;6994;49.752;6.094;2022-09-17T07:02:02;4.70;;;1.80;;
13847;SDS011;6994;49.752;6.094;2022-09-17T07:04:29;4.12;;;1.20;;
13847;SDS011;6994;49.752;6.094;2022-09-17T07:06:56;2.05;;;1.10;;
13847;SDS011;6994;49.752;6.094;2022-09-17T07:09:23;4.28;;;1.92;;
13847;SDS011;6994;49.752;6.094;2022-09-17T07:11:50;2.60;;;1.40;;
13847;SDS011;6994;49.752;6.094;2022-09-17T07:14:18;5.20;;;1.40;;
13847;SDS011;6994;49.752;6.094;2022-09-17T07:16:45;3.28;;;1.30;;
13847;SDS011;6994;49.752;6.094;2022-09-17T07:19:12;6.12;;;1.60;;
13847;SDS011;6994;49.752;6.094;2022-09-17T07:21:40;4.35;;;1.33;;
13847;SDS011;6994;49.752;6.094;2022-09-17T07:24:07;4.28;;;1.50;;
13847;SDS011;6994;49.752;6.094;2022-09-17T07:26:34;3.83;;;1.35;;
13847;SDS011;6994;49.752;6.094;2022-09-17T07:29:02;4.95;;;2.15;;
13847;SDS011;6994;49.752;6.094;2022-09-17T07:31:30;4.60;;;1.30;;
13847;SDS011;6994;49.752;6.094;2022-09-17T07:33:57;8.85;;;1.65;;
13847;SDS011;6994;49.752;6.094;2022-09-17T07:36:24;5.62;;;1.40;;
13847;SDS011;6994;49.752;6.094;2022-09-17T07:38:51;2.20;;;1.12;;
13847;SDS011;6994;49.752;6.094;2022-09-17T07:41:18;6.05;;;1.58;;
13847;SDS011;6994;49.752;6.094;2022-09-17T07:43:46;5.62;;;1.48;;
13847;SDS011;6994;49.752;6.094;2022-09-17T07:46:14;7.43;;;1.65;;
13847;SDS011;6994;49.752;6.094;2022-09-17T07:48:40;7.97;;;2.12;;
13847;SDS011;6994;49.752;6.094;2022-09-17T07:51:08;5.03;;;1.55;;
13847;SDS011;6994;49.752;6.094;2022-09-17T07:53:34;4.35;;;1.17;;
13847;SDS011;6994;49.752;6.094;2022-09-17T07:56:02;5.12;;;1.40;;
13847;SDS011;6994;49.752;6.094;2022-09-17T07:58:30;5.68;;;1.48;;
13847;SDS011;6994;49.752;6.094;2022-09-17T08:01:03;6.37;;;1.60;;
13847;SDS011;6994;49.752;6.094;2022-09-17T08:03:26;3.72;;;1.87;;
13847;SDS011;6994;49.752;6.094;2022-09-17T08:05:53;5.20;;;1.52;;
13847;SDS011;6994;49.752;6.094;2022-09-17T08:08:20;4.87;;;1.08;;
13847;SDS011;6994;49.752;6.094;2022-09-17T08:10:48;7.35;;;1.90;;
13847;SDS011;6994;49.752;6.094;2022-09-17T08:13:16;4.93;;;1.60;;
13847;SDS011;6994;49.752;6.094;2022-09-17T08:15:43;8.15;;;1.62;;
13847;SDS011;6994;49.752;6.094;2022-09-17T08:18:11;6.78;;;2.12;;
13847;SDS011;6994;49.752;6.094;2022-09-17T08:20:39;6.45;;;1.58;;
13847;SDS011;6994;49.752;6.094;2022-09-17T08:23:06;8.50;;;2.53;;
13847;SDS011;6994;49.752;6.094;2022-09-17T08:25:33;3.67;;;1.90;;
13847;SDS011;6994;49.752;6.094;2022-09-17T08:28:00;6.93;;;1.92;;
13847;SDS011;6994;49.752;6.094;2022-09-17T08:30:28;5.97;;;1.80;;
13847;SDS011;6994;49.752;6.094;2022-09-17T08:32:55;7.07;;;2.10;;
13847;SDS011;6994;49.752;6.094;2022-09-17T08:35:22;7.97;;;2.05;;
13847;SDS011;6994;49.752;6.094;2022-09-17T08:37:49;10.55;;;2.05;;
13847;SDS011;6994;49.752;6.094;2022-09-17T08:40:17;7.78;;;1.83;;
13847;SDS011;6994;49.752;6.094;2022-09-17T08:42:54;9.70;;;1.80;;
13847;SDS011;6994;49.752;6.094;2022-09-17T08:45:16;3.53;;;1.30;;
13847;SDS011;6994;49.752;6.094;2022-09-17T08:47:43;7.97;;;2.72;;
13847;SDS011;6994;49.752;6.094;2022-09-17T08:50:12;5.90;;;2.05;;
13847;SDS011;6994;49.752;6.094;2022-09-17T08:52:59;9.63;;;2.40;;
13847;SDS011;6994;49.752;6.094;2022-09-17T08:55:42;10.55;;;2.00;;
13847;SDS011;6994;49.752;6.094;2022-09-17T09:01:23;5.28;;;1.40;;
13847;SDS011;6994;49.752;6.094;2022-09-17T09:06:48;6.30;;;2.45;;
13847;SDS011;6994;49.752;6.094;2022-09-17T09:09:15;5.25;;;1.75;;
13847;SDS011;6994;49.752;6.094;2022-09-17T09:11:42;6.32;;;1.60;;
13847;SDS011;6994;49.752;6.094;2022-09-17T09:16:46;5.10;;;1.42;;
13847;SDS011;6994;49.752;6.094;2022-09-17T09:19:26;3.62;;;1.30;;
13847;SDS011;6994;49.752;6.094;2022-09-17T09:24:23;13.07;;;2.12;;
13847;SDS011;6994;49.752;6.094;2022-09-17T09:26:55;5.10;;;1.30;;
13847;SDS011;6994;49.752;6.094;2022-09-17T09:31:59;5.82;;;1.77;;
13847;SDS011;6994;49.752;6.094;2022-09-17T09:34:37;5.03;;;1.27;;
13847;SDS011;6994;49.752;6.094;2022-09-17T09:37:10;5.32;;;1.70;;
13847;SDS011;6994;49.752;6.094;2022-09-17T09:39:43;6.55;;;1.42;;
13847;SDS011;6994;49.752;6.094;2022-09-17T09:42:15;7.62;;;2.05;;
13847;SDS011;6994;49.752;6.094;2022-09-17T09:44:40;5.07;;;1.65;;
13847;SDS011;6994;49.752;6.094;2022-09-17T09:47:33;8.27;;;1.37;;
13847;SDS011;6994;49.752;6.094;2022-09-17T09:52:47;4.75;;;1.42;;
13847;SDS011;6994;49.752;6.094;2022-09-17T09:55:30;5.35;;;1.58;;
13847;SDS011;6994;49.752;6.094;2022-09-17T09:58:13;5.15;;;1.70;;
13847;SDS011;6994;49.752;6.094;2022-09-17T10:00:54;6.90;;;1.98;;
13847;SDS011;6994;49.752;6.094;2022-09-17T10:03:25;6.90;;;1.87;;
13847;SDS011;6994;49.752;6.094;2022-09-17T10:05:55;3.80;;;1.52;;
13847;SDS011;6994;49.752;6.094;2022-09-17T10:08:23;8.50;;;1.60;;
13847;SDS011;6994;49.752;6.094;2022-09-17T10:10:57;5.20;;;1.40;;
13847;SDS011;6994;49.752;6.094;2022-09-17T10:13:26;4.10;;;1.80;;
13847;SDS011;6994;49.752;6.094;2022-09-17T10:15:53;4.55;;;1.87;;
13847;SDS011;6994;49.752;6.094;2022-09-17T10:18:21;4.78;;;1.48;;
13847;SDS011;6994;49.752;6.094;2022-09-17T10:20:57;3.42;;;1.42;;
13847;SDS011;6994;49.752;6.094;2022-09-17T10:23:24;5.35;;;1.12;;
13847;SDS011;6994;49.752;6.094;2022-09-17T10:25:50;3.58;;;1.30;;
13847;SDS011;6994;49.752;6.094;2022-09-17T10:28:28;2.75;;;1.25;;
13847;SDS011;6994;49.752;6.094;2022-09-17T10:30:57;5.28;;;1.37;;
13847;SDS011;6994;49.752;6.094;2022-09-17T10:33:28;2.47;;;0.90;;
13847;SDS011;6994;49.752;6.094;2022-09-17T10:35:57;4.62;;;1.00;;
13847;SDS011;6994;49.752;6.094;2022-09-17T10:41:06;4.28;;;1.00;;
13847;SDS011;6994;49.752;6.094;2022-09-17T10:43:21;4.55;;;1.20;;
13847;SDS011;6994;49.752;6.094;2022-09-17T10:45:56;1.52;;;0.70;;
13847;SDS011;6994;49.752;6.094;2022-09-17T10:48:22;2.70;;;0.90;;
13847;SDS011;6994;49.752;6.094;2022-09-17T10:50:51;3.40;;;1.37;;
13847;SDS011;6994;49.752;6.094;2022-09-17T10:53:17;3.78;;;1.08;;
13847;SDS011;6994;49.752;6.094;2022-09-17T10:55:49;1.60;;;0.80;;
13847;SDS011;6994;49.752;6.094;2022-09-17T11:01:31;2.42;;;0.90;;
13847;SDS011;6994;49.752;6.094;2022-09-17T11:04:12;2.12;;;0.65;;
13847;SDS011;6994;49.752;6.094;2022-09-17T11:06:35;3.37;;;0.68;;
13847;SDS011;6994;49.752;6.094;2022-09-17T11:09:10;1.25;;;0.45;;
13847;SDS011;6994;49.752;6.094;2022-09-17T11:19:41;1.62;;;0.70;;
13847;SDS011;6994;49.752;6.094;2022-09-17T11:25:22;0.55;;;0.55;;
13847;SDS011;6994;49.752;6.094;2022-09-17T11:36:12;1.05;;;0.50;;
13847;SDS011;6994;49.752;6.094;2022-09-17T11:38:49;1.45;;;0.70;;
13847;SDS011;6994;49.752;6.094;2022-09-17T11:41:22;0.98;;;0.50;;
13847;SDS011;6994;49.752;6.094;2022-09-17T11:44:08;2.10;;;0.65;;
13847;SDS011;6994;49.752;6.094;2022-09-17T11:46:57;1.55;;;0.40;;
13847;SDS011;6994;49.752;6.094;2022-09-17T11:54:43;2.37;;;0.50;;
13847;SDS011;6994;49.752;6.094;2022-09-17T11:57:14;2.67;;;0.47;;
13847;SDS011;6994;49.752;6.094;2022-09-17T11:59:43;2.87;;;0.70;;
13847;SDS011;6994;49.752;6.094;2022-09-17T12:02:21;1.45;;;0.57;;
13847;SDS011;6994;49.752;6.094;2022-09-17T12:04:56;3.17;;;0.52;;
13847;SDS011;6994;49.752;6.094;2022-09-17T12:07:26;4.15;;;0.57;;
13847;SDS011;6994;49.752;6.094;2022-09-17T12:12:24;1.27;;;0.50;;
13847;SDS011;6994;49.752;6.094;2022-09-17T12:15:00;1.75;;;0.50;;
13847;SDS011;6994;49.752;6.094;2022-09-17T12:17:30;1.23;;;0.57;;
13847;SDS011;6994;49.752;6.094;2022-09-17T12:19:58;1.58;;;0.60;;
13847;SDS011;6994;49.752;6.094;2022-09-17T12:22:29;1.12;;;0.62;;
13847;SDS011;6994;49.752;6.094;2022-09-17T12:24:52;1.17;;;0.62;;
13847;SDS011;6994;49.752;6.094;2022-09-17T12:32:43;1.23;;;0.43;;
13847;SDS011;6994;49.752;6.094;2022-09-17T12:38:28;0.50;;;0.40;;
13847;SDS011;6994;49.752;6.094;2022-09-17T12:41:19;4.20;;;0.93;;
13847;SDS011;6994;49.752;6.094;2022-09-17T12:52:00;3.20;;;0.85;;
13847;SDS011;6994;49.752;6.094;2022-09-17T13:00:08;1.55;;;0.43;;
13847;SDS011;6994;49.752;6.094;2022-09-17T13:02:48;1.73;;;0.62;;
13847;SDS011;6994;49.752;6.094;2022-09-17T13:05:33;0.47;;;0.47;;
13847;SDS011;6994;49.752;6.094;2022-09-17T13:18:44;0.82;;;0.30;;
13847;SDS011;6994;49.752;6.094;2022-09-17T13:21:19;0.88;;;0.32;;
13847;SDS011;6994;49.752;6.094;2022-09-17T13:23:47;2.35;;;0.35;;
13847;SDS011;6994;49.752;6.094;2022-09-17T13:26:14;0.80;;;0.20;;
13847;SDS011;6994;49.752;6.094;2022-09-17T13:31:08;1.10;;;0.25;;
13847;SDS011;6994;49.752;6.094;2022-09-17T13:39:10;0.62;;;0.17;;
13847;SDS011;6994;49.752;6.094;2022-09-17T13:41:35;0.10;;;0.10;;
13847;SDS011;6994;49.752;6.094;2022-09-17T13:44:05;0.52;;;0.30;;
13847;SDS011;6994;49.752;6.094;2022-09-17T13:46:28;1.70;;;0.45;;
13847;SDS011;6994;49.752;6.094;2022-09-17T13:49:00;0.35;;;0.10;;
13847;SDS011;6994;49.752;6.094;2022-09-17T13:53:56;0.43;;;0.30;;
13847;SDS011;6994;49.752;6.094;2022-09-17T13:56:34;1.27;;;0.25;;
13847;SDS011;6994;49.752;6.094;2022-09-17T13:59:06;1.42;;;0.40;;
13847;SDS011;6994;49.752;6.094;2022-09-17T14:09:53;0.95;;;0.30;;
13847;SDS011;6994;49.752;6.094;2022-09-17T14:17:59;0.62;;;0.35;;
13847;SDS011;6994;49.752;6.094;2022-09-17T14:20:26;0.85;;;0.30;;
13847;SDS011;6994;49.752;6.094;2022-09-17T14:22:56;1.10;;;0.30;;
13847;SDS011;6994;49.752;6.094;2022-09-17T14:28:13;0.65;;;0.17;;
13847;SDS011;6994;49.752;6.094;2022-09-17T14:30:59;0.13;;;0.10;;
13847;SDS011;6994;49.752;6.094;2022-09-17T14:33:25;0.40;;;0.20;;
13847;SDS011;6994;49.752;6.094;2022-09-17T14:35:54;1.45;;;0.20;;
13847;SDS011;6994;49.752;6.094;2022-09-17T14:38:32;0.62;;;0.20;;
13847;SDS011;6994;49.752;6.094;2022-09-17T14:41:02;1.08;;;0.30;;
13847;SDS011;6994;49.752;6.094;2022-09-17T14:43:32;0.03;;;0.00;;
13847;SDS011;6994;49.752;6.094;2022-09-17T14:46:21;0.05;;;0.05;;
13847;SDS011;6994;49.752;6.094;2022-09-17T14:48:47;2.35;;;0.30;;
13847;SDS011;6994;49.752;6.094;2022-09-17T14:53:46;2.50;;;0.30;;
13847;SDS011;6994;49.752;6.094;2022-09-17T14:56:41;0.70;;;0.40;;
13847;SDS011;6994;49.752;6.094;2022-09-17T14:59:25;1.48;;;0.40;;
13847;SDS011;6994;49.752;6.094;2022-09-17T15:01:48;2.83;;;0.40;;
13847;SDS011;6994;49.752;6.094;2022-09-17T15:04:19;1.87;;;0.35;;
13847;SDS011;6994;49.752;6.094;2022-09-17T15:06:45;2.12;;;0.57;;
13847;SDS011;6994;49.752;6.094;2022-09-17T15:09:32;1.90;;;0.30;;
13847;SDS011;6994;49.752;6.094;2022-09-17T15:11:43;0.30;;;0.20;;
13847;SDS011;6994;49.752;6.094;2022-09-17T15:14:13;0.55;;;0.32;;
13847;SDS011;6994;49.752;6.094;2022-09-17T15:16:45;0.40;;;0.35;;
13847;SDS011;6994;49.752;6.094;2022-09-17T15:19:04;2.90;;;0.35;;
13847;SDS011;6994;49.752;6.094;2022-09-17T15:21:38;1.33;;;0.28;;
13847;SDS011;6994;49.752;6.094;2022-09-17T15:24:20;1.15;;;0.30;;
13847;SDS011;6994;49.752;6.094;2022-09-17T15:26:54;3.28;;;0.45;;
13847;SDS011;6994;49.752;6.094;2022-09-17T15:29:21;1.42;;;0.20;;
13847;SDS011;6994;49.752;6.094;2022-09-17T15:31:47;0.80;;;0.30;;
13847;SDS011;6994;49.752;6.094;2022-09-17T15:34:15;1.17;;;0.32;;
13847;SDS011;6994;49.752;6.094;2022-09-17T15:39:30;2.78;;;0.57;;
13847;SDS011;6994;49.752;6.094;2022-09-17T15:41:56;1.75;;;0.60;;
13847;SDS011;6994;49.752;6.094;2022-09-17T15:44:24;3.28;;;0.47;;
13847;SDS011;6994;49.752;6.094;2022-09-17T15:46:51;2.50;;;0.65;;
13847;SDS011;6994;49.752;6.094;2022-09-17T15:49:28;3.60;;;0.40;;
13847;SDS011;6994;49.752;6.094;2022-09-17T15:54:55;2.83;;;0.62;;
13847;SDS011;6994;49.752;6.094;2022-09-17T15:57:22;2.33;;;0.57;;
13847;SDS011;6994;49.752;6.094;2022-09-17T15:59:49;1.60;;;0.60;;
13847;SDS011;6994;49.752;6.094;2022-09-17T16:02:27;2.28;;;0.43;;
13847;SDS011;6994;49.752;6.094;2022-09-17T16:05:10;2.08;;;0.62;;
13847;SDS011;6994;49.752;6.094;2022-09-17T16:07:27;3.95;;;0.70;;
13847;SDS011;6994;49.752;6.094;2022-09-17T16:09:53;4.43;;;0.77;;
13847;SDS011;6994;49.752;6.094;2022-09-17T16:12:22;4.37;;;0.98;;
13847;SDS011;6994;49.752;6.094;2022-09-17T16:14:49;1.85;;;0.85;;
13847;SDS011;6994;49.752;6.094;2022-09-17T16:17:25;2.20;;;0.60;;
13847;SDS011;6994;49.752;6.094;2022-09-17T16:20:22;2.87;;;1.05;;
13847;SDS011;6994;49.752;6.094;2022-09-17T16:22:40;3.33;;;1.10;;
13847;SDS011;6994;49.752;6.094;2022-09-17T16:25:07;3.05;;;0.77;;
13847;SDS011;6994;49.752;6.094;2022-09-17T16:27:47;3.97;;;1.00;;
13847;SDS011;6994;49.752;6.094;2022-09-17T16:30:17;3.35;;;1.33;;
13847;SDS011;6994;49.752;6.094;2022-09-17T16:32:43;6.87;;;1.23;;
13847;SDS011;6994;49.752;6.094;2022-09-17T16:35:11;6.12;;;1.25;;
13847;SDS011;6994;49.752;6.094;2022-09-17T16:37:40;4.50;;;0.70;;
13847;SDS011;6994;49.752;6.094;2022-09-17T16:40:09;4.80;;;0.70;;
13847;SDS011;6994;49.752;6.094;2022-09-17T16:42:35;5.65;;;1.12;;
13847;SDS011;6994;49.752;6.094;2022-09-17T16:45:03;9.23;;;1.60;;
13847;SDS011;6994;49.752;6.094;2022-09-17T16:47:34;2.55;;;0.70;;
13847;SDS011;6994;49.752;6.094;2022-09-17T16:50:04;2.70;;;0.80;;
13847;SDS011;6994;49.752;6.094;2022-09-17T16:52:31;6.05;;;1.58;;
13847;SDS011;6994;49.752;6.094;2022-09-17T16:54:58;4.90;;;0.90;;
13847;SDS011;6994;49.752;6.094;2022-09-17T16:57:25;2.92;;;1.20;;
13847;SDS011;6994;49.752;6.094;2022-09-17T16:59:52;4.65;;;0.98;;
13847;SDS011;6994;49.752;6.094;2022-09-17T17:02:19;2.83;;;0.77;;
13847;SDS011;6994;49.752;6.094;2022-09-17T17:04:47;5.07;;;0.82;;
13847;SDS011;6994;49.752;6.094;2022-09-17T17:07:14;3.90;;;0.93;;
13847;SDS011;6994;49.752;6.094;2022-09-17T17:09:41;5.50;;;1.10;;
13847;SDS011;6994;49.752;6.094;2022-09-17T17:12:08;5.45;;;1.33;;
13847;SDS011;6994;49.752;6.094;2022-09-17T17:14:35;3.72;;;1.08;;
13847;SDS011;6994;49.752;6.094;2022-09-17T17:17:03;4.35;;;1.25;;
13847;SDS011;6994;49.752;6.094;2022-09-17T17:19:30;3.85;;;1.10;;
13847;SDS011;6994;49.752;6.094;2022-09-17T17:21:57;7.35;;;3.67;;
13847;SDS011;6994;49.752;6.094;2022-09-17T17:24:24;2.70;;;1.23;;
13847;SDS011;6994;49.752;6.094;2022-09-17T17:26:51;4.07;;;0.80;;
13847;SDS011;6994;49.752;6.094;2022-09-17T17:29:19;5.60;;;1.23;;
13847;SDS011;6994;49.752;6.094;2022-09-17T17:31:46;2.10;;;1.35;;
13847;SDS011;6994;49.752;6.094;2022-09-17T17:34:13;4.97;;;1.15;;
13847;SDS011;6994;49.752;6.094;2022-09-17T17:36:40;2.92;;;1.12;;
13847;SDS011;6994;49.752;6.094;2022-09-17T17:39:07;3.55;;;1.05;;
13847;SDS011;6994;49.752;6.094;2022-09-17T17:41:35;4.10;;;1.73;;